Time;durP1;ratioP1;P1;durP2;ratioP2;P2;SDS_P1;SDS_P2;PMS_P1;PMS_P2;Temp;Humidity;BMP_temperature;BMP_pressure;BME280_temperature;BME280_humidity;BME280_pressure;Samples;Min_cycle;Max_cycle;Signal;HPM_P1;HPM_P2
2023/01/06 00:00:12;;;;;;;9.93;1.42;;;;;;;;;;5086317;28;20048;-76
2023/01/06 00:02:47;;;;;;;7.57;1.10;;;;;;;;;;5086783;28;20860;-73
2023/01/06 00:05:17;;;;;;;6.03;1.35;;;;;;;;;;5086141;28;20063;-75
2023/01/06 00:07:50;;;;;;;9.35;1.17;;;;;;;;;;5091856;28;20047;-76
2023/01/06 00:10:24;;;;;;;7.03;0.98;;;;;;;;;;5091234;28;20036;-78
2023/01/06 00:12:55;;;;;;;8.45;1.15;;;;;;;;;;5087030;28;20525;-75
2023/01/06 00:15:25;;;;;;;7.70;1.00;;;;;;;;;;5091114;28;20035;-75
2023/01/06 00:17:59;;;;;;;11.73;1.27;;;;;;;;;;5087456;28;20067;-74
2023/01/06 00:20:29;;;;;;;5.45;1.23;;;;;;;;;;5100868;28;20047;-74
2023/01/06 00:22:59;;;;;;;5.65;1.48;;;;;;;;;;5103855;28;20043;-75
2023/01/06 00:25:32;;;;;;;9.43;1.13;;;;;;;;;;5099915;28;20434;-74
2023/01/06 00:28:02;;;;;;;7.90;1.00;;;;;;;;;;5085801;28;20040;-75
2023/01/06 00:30:32;;;;;;;4.65;1.02;;;;;;;;;;5099932;28;20059;-75
2023/01/06 00:33:04;;;;;;;3.85;1.17;;;;;;;;;;5083861;28;20418;-76
2023/01/06 00:35:34;;;;;;;7.50;1.63;;;;;;;;;;5086484;28;20048;-74
2023/01/06 00:38:04;;;;;;;5.28;1.27;;;;;;;;;;5067798;28;20048;-75
2023/01/06 00:40:36;;;;;;;3.05;1.02;;;;;;;;;;5085790;28;20549;-75
2023/01/06 00:43:08;;;;;;;9.27;1.17;;;;;;;;;;5084095;28;20048;-74
2023/01/06 00:45:38;;;;;;;6.90;1.05;;;;;;;;;;5084784;28;20055;-74
2023/01/06 00:48:09;;;;;;;8.25;1.25;;;;;;;;;;5084338;28;20059;-75
2023/01/06 00:50:39;;;;;;;8.88;1.30;;;;;;;;;;5084030;28;20059;-75
2023/01/06 00:53:10;;;;;;;11.57;1.33;;;;;;;;;;5083980;28;20052;-75
2023/01/06 00:55:40;;;;;;;10.43;1.58;;;;;;;;;;5085749;28;20040;-75
2023/01/06 00:58:10;;;;;;;7.68;1.42;;;;;;;;;;5086530;28;20490;-76
2023/01/06 01:00:40;;;;;;;8.13;1.10;;;;;;;;;;5086127;28;20062;-76
2023/01/06 01:03:11;;;;;;;7.32;1.05;;;;;;;;;;5086013;28;20036;-76
2023/01/06 01:06:12;;;;;;;6.13;1.00;;;;;;;;;;5084113;28;20048;-75
2023/01/06 01:08:59;;;;;;;5.53;0.75;;;;;;;;;;5084599;28;20518;-75
2023/01/06 01:14:58;;;;;;;6.28;1.50;;;;;;;;;;5083200;28;20056;-76
2023/01/06 01:17:32;;;;;;;5.82;1.10;;;;;;;;;;5088449;28;20048;-75
2023/01/06 01:20:03;;;;;;;8.35;0.90;;;;;;;;;;5087582;28;20052;-75
2023/01/06 01:22:34;;;;;;;7.97;1.10;;;;;;;;;;5091282;28;20051;-75
2023/01/06 01:25:04;;;;;;;11.52;1.17;;;;;;;;;;5098315;28;20048;-75
2023/01/06 01:27:34;;;;;;;7.68;1.10;;;;;;;;;;5083155;28;20052;-76
2023/01/06 01:30:06;;;;;;;4.18;1.27;;;;;;;;;;5097765;28;20789;-75
2023/01/06 01:32:36;;;;;;;4.88;0.82;;;;;;;;;;5096621;28;20098;-76
2023/01/06 01:35:06;;;;;;;6.20;1.10;;;;;;;;;;5088778;28;20047;-75
2023/01/06 01:37:39;;;;;;;7.40;0.95;;;;;;;;;;5085413;28;20423;-78
2023/01/06 01:40:11;;;;;;;12.38;1.10;;;;;;;;;;5088162;28;20043;-76
2023/01/06 01:42:42;;;;;;;7.72;1.00;;;;;;;;;;5088681;28;20052;-76
2023/01/06 01:45:27;;;;;;;8.10;1.30;;;;;;;;;;5087341;28;20051;-76
2023/01/06 01:48:33;;;;;;;3.70;1.13;;;;;;;;;;5087030;28;20051;-77
2023/01/06 01:51:07;;;;;;;6.63;0.95;;;;;;;;;;5086886;28;20059;-76
2023/01/06 01:53:49;;;;;;;6.22;1.10;;;;;;;;;;5089566;28;20048;-75
2023/01/06 01:56:28;;;;;;;6.40;1.15;;;;;;;;;;5088562;28;20059;-77
2023/01/06 01:59:06;;;;;;;5.25;1.30;;;;;;;;;;5088885;28;20048;-76
2023/01/06 02:01:37;;;;;;;11.77;1.60;;;;;;;;;;5088450;28;20088;-76
2023/01/06 02:04:08;;;;;;;8.10;1.50;;;;;;;;;;5090099;28;20420;-75
2023/01/06 02:06:40;;;;;;;9.75;1.45;;;;;;;;;;5087450;28;20052;-75
2023/01/06 02:09:32;;;;;;;5.53;1.20;;;;;;;;;;5087366;28;20048;-76
2023/01/06 02:12:03;;;;;;;6.85;1.40;;;;;;;;;;5089040;28;20428;-75
2023/01/06 02:14:35;;;;;;;7.25;1.23;;;;;;;;;;5088890;28;20687;-76
2023/01/06 02:17:14;;;;;;;7.40;1.40;;;;;;;;;;5088134;28;20055;-76
2023/01/06 02:19:44;;;;;;;4.35;1.15;;;;;;;;;;5088492;28;20059;-76
2023/01/06 02:22:39;;;;;;;5.90;1.48;;;;;;;;;;5088545;28;20048;-76
2023/01/06 02:25:31;;;;;;;9.02;1.10;;;;;;;;;;5088211;28;20047;-76
2023/01/06 02:28:20;;;;;;;8.45;1.42;;;;;;;;;;5068810;28;20059;-76
2023/01/06 02:31:28;;;;;;;4.80;0.90;;;;;;;;;;5086207;28;20044;-76
2023/01/06 02:34:29;;;;;;;5.82;1.75;;;;;;;;;;5087136;28;20055;-74
2023/01/06 02:37:21;;;;;;;5.93;1.40;;;;;;;;;;5086870;28;20056;-75
2023/01/06 02:40:35;;;;;;;5.82;1.25;;;;;;;;;;5087848;28;20044;-74
2023/01/06 02:43:51;;;;;;;5.97;1.60;;;;;;;;;;5080961;28;20064;-74
2023/01/06 02:47:31;;;;;;;5.85;1.20;;;;;;;;;;5083668;28;20542;-77
2023/01/06 02:50:15;;;;;;;7.53;1.15;;;;;;;;;;5086028;28;20531;-74
2023/01/06 02:53:01;;;;;;;6.60;1.38;;;;;;;;;;5086038;28;20440;-75
2023/01/06 02:55:45;;;;;;;2.08;1.20;;;;;;;;;;5086096;28;20514;-75
2023/01/06 02:58:39;;;;;;;2.92;1.17;;;;;;;;;;5086273;28;20078;-76
2023/01/06 03:01:16;;;;;;;;;;;;;;;;;;5086319;28;20067;-75
2023/01/06 03:03:50;;;;;;;3.75;1.05;;;;;;;;;;5069862;28;19938;-75
2023/01/06 03:06:29;;;;;;;8.27;1.45;;;;;;;;;;5085770;28;20059;-77
2023/01/06 03:09:02;;;;;;;13.02;1.27;;;;;;;;;;5085407;28;20422;-75
2023/01/06 03:11:41;;;;;;;9.65;1.50;;;;;;;;;;5085160;28;20475;-75
2023/01/06 03:14:34;;;;;;;8.00;1.23;;;;;;;;;;5085100;28;20158;-75
2023/01/06 03:17:04;;;;;;;7.90;0.98;;;;;;;;;;5085350;28;20064;-75
2023/01/06 03:19:35;;;;;;;3.50;0.95;;;;;;;;;;5087212;28;20052;-75
2023/01/06 03:22:07;;;;;;;6.47;1.20;;;;;;;;;;5087725;28;20067;-75
2023/01/06 03:24:38;;;;;;;3.83;0.88;;;;;;;;;;5087851;28;20443;-75
2023/01/06 03:27:09;;;;;;;4.78;1.00;;;;;;;;;;5085123;28;20044;-76
2023/01/06 03:29:42;;;;;;;7.95;1.02;;;;;;;;;;5085303;28;20048;-75
2023/01/06 03:32:27;;;;;;;3.63;0.98;;;;;;;;;;5085191;28;20063;-75
2023/01/06 03:35:04;;;;;;;3.78;0.90;;;;;;;;;;5085464;28;20138;-74
2023/01/06 03:38:00;;;;;;;7.47;1.10;;;;;;;;;;5087239;28;20048;-75
2023/01/06 03:40:40;;;;;;;7.20;0.95;;;;;;;;;;5084440;28;20055;-76
2023/01/06 03:43:38;;;;;;;5.68;0.98;;;;;;;;;;5085234;28;20423;-74
2023/01/06 03:46:42;;;;;;;6.50;1.08;;;;;;;;;;5085143;28;20055;-75
2023/01/06 03:49:34;;;;;;;3.97;1.15;;;;;;;;;;5086501;28;20511;-76
2023/01/06 03:52:25;;;;;;;7.40;1.63;;;;;;;;;;5085431;28;20533;-75
2023/01/06 03:55:03;;;;;;;5.10;1.35;;;;;;;;;;5085135;28;20518;-75
2023/01/06 03:57:40;;;;;;;5.25;1.05;;;;;;;;;;5085020;28;20048;-75
2023/01/06 04:00:19;;;;;;;5.68;1.10;;;;;;;;;;5084584;28;20414;-75
2023/01/06 04:03:00;;;;;;;8.82;1.30;;;;;;;;;;5085135;28;20063;-75
2023/01/06 04:05:31;;;;;;;7.43;1.20;;;;;;;;;;5086596;28;20517;-75
2023/01/06 04:08:03;;;;;;;1.85;0.73;;;;;;;;;;5085782;28;20060;-75
2023/01/06 04:10:34;;;;;;;5.32;1.05;;;;;;;;;;5085030;28;20059;-74
2023/01/06 04:13:04;;;;;;;6.97;1.10;;;;;;;;;;5085262;28;20518;-75
2023/01/06 04:15:35;;;;;;;5.82;1.23;;;;;;;;;;5085176;28;20048;-75
2023/01/06 04:18:07;;;;;;;7.90;1.40;;;;;;;;;;5084654;28;20055;-74
2023/01/06 04:20:40;;;;;;;4.28;1.27;;;;;;;;;;5084656;28;20048;-75
2023/01/06 04:23:28;;;;;;;4.47;1.00;;;;;;;;;;5084226;28;20052;-76
2023/01/06 04:25:59;;;;;;;7.72;1.13;;;;;;;;;;5084495;28;20801;-76
2023/01/06 04:28:38;;;;;;;5.47;1.00;;;;;;;;;;5084806;28;20052;-74
2023/01/06 04:31:09;;;;;;;4.70;1.20;;;;;;;;;;5086663;28;20047;-75
2023/01/06 04:33:40;;;;;;;8.48;1.15;;;;;;;;;;5084432;28;20048;-77
2023/01/06 04:36:12;;;;;;;8.45;1.10;;;;;;;;;;5068451;28;20055;-75
2023/01/06 04:38:47;;;;;;;5.85;1.08;;;;;;;;;;5084295;28;20387;-75
2023/01/06 04:41:17;;;;;;;6.63;1.02;;;;;;;;;;5086317;28;20067;-75
2023/01/06 04:43:49;;;;;;;5.90;0.88;;;;;;;;;;5086425;28;20055;-76
2023/01/06 04:46:19;;;;;;;4.68;1.05;;;;;;;;;;5086240;28;20048;-76
2023/01/06 04:48:49;;;;;;;5.88;0.80;;;;;;;;;;5086231;28;20055;-76
2023/01/06 04:51:20;;;;;;;6.22;0.88;;;;;;;;;;5086549;28;20051;-76
2023/01/06 04:53:51;;;;;;;4.65;1.10;;;;;;;;;;5088658;28;20056;-76
2023/01/06 04:56:22;;;;;;;4.57;1.17;;;;;;;;;;5090039;28;20055;-76
2023/01/06 04:58:56;;;;;;;7.50;1.20;;;;;;;;;;5089857;28;20048;-76
2023/01/06 05:01:26;;;;;;;6.72;1.20;;;;;;;;;;5090738;28;20067;-76
2023/01/06 05:03:58;;;;;;;2.70;0.90;;;;;;;;;;5088257;28;20450;-77
2023/01/06 05:06:29;;;;;;;4.88;0.82;;;;;;;;;;5090358;28;20040;-76
2023/01/06 05:08:59;;;;;;;7.20;0.90;;;;;;;;;;5087842;28;20403;-75
2023/01/06 05:11:29;;;;;;;3.58;0.90;;;;;;;;;;5089422;28;21185;-75
2023/01/06 05:14:00;;;;;;;5.57;1.00;;;;;;;;;;5089601;28;20040;-76
2023/01/06 05:16:33;;;;;;;4.55;1.20;;;;;;;;;;5089642;28;20044;-75
2023/01/06 05:19:03;;;;;;;8.15;1.55;;;;;;;;;;5089873;28;20051;-76
2023/01/06 05:21:35;;;;;;;9.05;1.13;;;;;;;;;;5089938;28;20052;-75
2023/01/06 05:24:05;;;;;;;3.20;1.00;;;;;;;;;;5089562;28;20040;-74
2023/01/06 05:26:36;;;;;;;7.47;1.40;;;;;;;;;;5090119;28;20055;-76
2023/01/06 05:29:07;;;;;;;6.50;1.23;;;;;;;;;;5089549;28;20048;-75
2023/01/06 05:31:45;;;;;;;6.30;1.15;;;;;;;;;;5089123;28;20048;-76
2023/01/06 05:34:16;;;;;;;7.22;1.17;;;;;;;;;;5087842;28;20048;-75
2023/01/06 05:36:47;;;;;;;5.43;1.02;;;;;;;;;;5089184;28;20052;-75
2023/01/06 05:39:17;;;;;;;5.35;1.33;;;;;;;;;;5088464;28;20051;-75
2023/01/06 05:41:48;;;;;;;6.80;0.90;;;;;;;;;;5088929;28;20613;-76
2023/01/06 05:44:17;;;;;;;4.47;0.93;;;;;;;;;;5089122;28;20036;-76
2023/01/06 05:46:49;;;;;;;5.55;0.80;;;;;;;;;;5088836;28;20036;-75
2023/01/06 05:49:21;;;;;;;5.25;1.13;;;;;;;;;;5089342;28;20043;-75
2023/01/06 05:51:51;;;;;;;3.53;0.90;;;;;;;;;;5089289;28;20399;-76
2023/01/06 05:54:22;;;;;;;5.13;1.42;;;;;;;;;;5087938;28;20052;-75
2023/01/06 05:56:51;;;;;;;6.75;1.02;;;;;;;;;;5089018;28;20067;-75
2023/01/06 05:59:22;;;;;;;3.13;0.70;;;;;;;;;;5088637;28;20063;-76
2023/01/06 06:01:52;;;;;;;2.58;1.10;;;;;;;;;;5087790;28;20056;-75
2023/01/06 06:04:24;;;;;;;5.70;1.17;;;;;;;;;;5087508;28;20458;-76
2023/01/06 06:06:54;;;;;;;6.10;0.85;;;;;;;;;;5088951;28;20048;-75
2023/01/06 06:09:24;;;;;;;6.68;1.08;;;;;;;;;;5088744;28;20784;-75
2023/01/06 06:11:55;;;;;;;5.10;0.85;;;;;;;;;;5088829;28;20048;-75
2023/01/06 06:14:26;;;;;;;4.85;1.02;;;;;;;;;;5088698;28;20491;-75
2023/01/06 08:21:40;;;;;;;9.85;1.10;;;;;;;;;;5079296;28;20414;-76
2023/01/06 08:24:11;;;;;;;3.83;1.13;;;;;;;;;;5106529;28;20047;-75
2023/01/06 08:26:40;;;;;;;7.28;0.98;;;;;;;;;;5106291;28;20052;-76
2023/01/06 08:29:11;;;;;;;4.95;1.45;;;;;;;;;;5110526;28;20074;-75
2023/01/06 08:31:41;;;;;;;4.03;1.02;;;;;;;;;;5111174;28;20048;-75
2023/01/06 08:34:13;;;;;;;4.18;1.05;;;;;;;;;;5110950;28;20051;-74
2023/01/06 08:36:45;;;;;;;7.32;1.58;;;;;;;;;;5111127;28;20032;-75
2023/01/06 08:39:22;;;;;;;5.03;1.00;;;;;;;;;;5110878;28;20054;-76
2023/01/06 08:41:57;;;;;;;4.38;1.02;;;;;;;;;;5110758;28;20514;-76
2023/01/06 08:44:35;;;;;;;4.40;0.90;;;;;;;;;;5110667;28;20038;-76
2023/01/06 08:47:08;;;;;;;7.75;1.40;;;;;;;;;;5110747;28;20043;-75
2023/01/06 08:50:01;;;;;;;5.43;1.30;;;;;;;;;;5110938;28;20059;-76
2023/01/06 08:52:34;;;;;;;3.25;1.50;;;;;;;;;;5109340;28;20075;-76
2023/01/06 08:55:14;;;;;;;3.10;1.33;;;;;;;;;;5111198;28;20039;-76
2023/01/06 08:57:53;;;;;;;8.27;1.23;;;;;;;;;;5111276;28;20478;-77
2023/01/06 09:00:27;;;;;;;1.70;0.93;;;;;;;;;;5108981;28;20059;-76
2023/01/06 09:02:59;;;;;;;4.63;1.40;;;;;;;;;;5110570;28;20414;-76
2023/01/06 09:05:42;;;;;;;8.35;1.20;;;;;;;;;;5093416;28;20052;-76
2023/01/06 09:08:12;;;;;;;4.57;1.02;;;;;;;;;;5109971;28;20063;-76
2023/01/06 09:10:43;;;;;;;5.13;1.38;;;;;;;;;;5110382;28;20052;-77
2023/01/06 09:13:17;;;;;;;16.42;1.95;;;;;;;;;;5110046;28;20498;-76
2023/01/06 09:15:51;;;;;;;5.88;1.40;;;;;;;;;;5110136;28;20051;-78
2023/01/06 09:18:24;;;;;;;7.50;2.00;;;;;;;;;;5110265;28;20043;-76
2023/01/06 09:21:04;;;;;;;10.88;1.98;;;;;;;;;;5109918;28;20050;-76
2023/01/06 09:23:35;;;;;;;4.82;1.40;;;;;;;;;;5110386;28;20395;-76
2023/01/06 09:26:08;;;;;;;8.88;1.70;;;;;;;;;;5110268;28;20109;-76
2023/01/06 09:28:40;;;;;;;8.45;1.67;;;;;;;;;;5110634;28;20051;-76
2023/01/06 09:31:13;;;;;;;4.57;1.95;;;;;;;;;;5109893;28;20059;-76
2023/01/06 09:33:45;;;;;;;9.05;1.67;;;;;;;;;;5109840;28;20048;-75
2023/01/06 09:36:15;;;;;;;8.05;1.50;;;;;;;;;;5108166;28;20514;-77
2023/01/06 09:38:48;;;;;;;1.92;1.10;;;;;;;;;;5109175;28;20048;-78
2023/01/06 09:41:34;;;;;;;9.32;1.38;;;;;;;;;;5109914;28;20069;-76
2023/01/06 09:44:21;;;;;;;4.53;1.50;;;;;;;;;;5109907;28;20502;-76
2023/01/06 09:46:53;;;;;;;8.18;1.40;;;;;;;;;;5108185;28;20062;-80
2023/01/06 09:50:00;;;;;;;4.50;1.00;;;;;;;;;;5109803;28;20521;-77
2023/01/06 09:52:34;;;;;;;5.35;1.23;;;;;;;;;;5109138;28;20046;-76
2023/01/06 09:55:17;;;;;;;8.60;1.90;;;;;;;;;;5109691;28;20051;-77
2023/01/06 09:58:12;;;;;;;6.75;1.67;;;;;;;;;;5109799;28;20058;-76
2023/01/06 10:00:51;;;;;;;4.78;1.02;;;;;;;;;;5094105;28;20062;-77
2023/01/06 10:03:26;;;;;;;2.10;0.75;;;;;;;;;;5108081;28;20438;-76
2023/01/06 10:06:09;;;;;;;8.10;1.30;;;;;;;;;;5108809;28;20055;-75
2023/01/06 10:09:11;;;;;;;8.27;2.25;;;;;;;;;;5109329;28;20044;-77
2023/01/06 10:11:52;;;;;;;16.95;1.95;;;;;;;;;;5109874;28;20204;-76
2023/01/06 10:14:51;;;;;;;14.95;2.50;;;;;;;;;;5109363;28;20043;-78
2023/01/06 10:17:35;;;;;;;15.65;1.90;;;;;;;;;;5108929;28;20441;-76
2023/01/06 10:20:43;;;;;;;12.15;1.60;;;;;;;;;;5108905;28;20502;-76
2023/01/06 10:23:23;;;;;;;10.60;2.22;;;;;;;;;;5109208;28;20044;-76
2023/01/06 10:26:25;;;;;;;12.60;1.80;;;;;;;;;;5108448;28;20051;-76
2023/01/06 10:29:16;;;;;;;9.82;1.75;;;;;;;;;;5081236;28;20058;-80
2023/01/06 10:31:50;;;;;;;12.90;3.35;;;;;;;;;;5108450;28;20047;-78
2023/01/06 10:34:24;;;;;;;8.90;2.10;;;;;;;;;;5107169;28;20066;-76
2023/01/06 10:37:10;;;;;;;6.82;1.33;;;;;;;;;;5107920;28;20054;-76
2023/01/06 10:39:43;;;;;;;10.52;1.42;;;;;;;;;;5109387;28;20056;-77
2023/01/06 10:45:12;;;;;;;9.98;1.40;;;;;;;;;;5108519;28;20406;-77
2023/01/06 10:47:44;;;;;;;7.80;1.65;;;;;;;;;;5108025;28;20048;-76
2023/01/06 10:50:17;;;;;;;8.30;1.17;;;;;;;;;;5107659;28;20054;-77
2023/01/06 10:52:48;;;;;;;6.13;1.70;;;;;;;;;;5108603;28;20421;-76
2023/01/06 10:55:34;;;;;;;6.07;1.15;;;;;;;;;;5108506;28;20043;-76
2023/01/06 10:58:29;;;;;;;6.95;0.95;;;;;;;;;;5106588;28;20039;-76
2023/01/06 11:01:14;;;;;;;8.23;2.30;;;;;;;;;;5108211;28;20047;-76
2023/01/06 11:03:46;;;;;;;6.35;1.20;;;;;;;;;;5108697;28;20039;-76
2023/01/06 11:06:28;;;;;;;10.55;1.00;;;;;;;;;;5107697;28;20035;-76
2023/01/06 11:09:06;;;;;;;4.60;1.00;;;;;;;;;;5106401;28;20052;-76
2023/01/06 11:11:47;;;;;;;6.70;1.15;;;;;;;;;;5107577;28;20047;-76
2023/01/06 11:14:24;;;;;;;5.75;0.80;;;;;;;;;;5107960;28;20043;-75
2023/01/06 11:17:00;;;;;;;5.45;0.80;;;;;;;;;;5107753;28;20052;-74
2023/01/06 11:19:42;;;;;;;3.45;0.85;;;;;;;;;;5107926;28;20051;-74
2023/01/06 11:22:34;;;;;;;5.75;1.00;;;;;;;;;;5107501;28;20062;-76
2023/01/06 11:25:29;;;;;;;8.15;0.90;;;;;;;;;;5108032;28;20490;-78
2023/01/06 11:28:19;;;;;;;6.43;1.20;;;;;;;;;;5108146;28;20036;-77
2023/01/06 11:30:52;;;;;;;8.48;1.02;;;;;;;;;;5106207;28;20051;-76
2023/01/06 11:33:25;;;;;;;5.85;0.95;;;;;;;;;;5106174;28;20048;-77
2023/01/06 11:35:57;;;;;;;5.32;1.02;;;;;;;;;;5107717;28;20044;-76
2023/01/06 11:38:29;;;;;;;4.00;1.13;;;;;;;;;;5107252;28;20047;-76
2023/01/06 11:41:09;;;;;;;4.43;1.55;;;;;;;;;;5105581;28;20059;-80
2023/01/06 11:43:45;;;;;;;13.70;1.33;;;;;;;;;;5107309;28;20044;-75
2023/01/06 11:46:24;;;;;;;6.45;1.25;;;;;;;;;;5107312;28;20703;-77
2023/01/06 11:49:06;;;;;;;6.85;0.95;;;;;;;;;;5107094;28;20485;-76
2023/01/06 11:51:42;;;;;;;4.32;0.90;;;;;;;;;;5089933;28;20055;-78
2023/01/06 11:54:27;;;;;;;3.67;0.73;;;;;;;;;;5107267;28;20410;-76
2023/01/06 11:56:59;;;;;;;1.92;0.60;;;;;;;;;;5107035;28;20047;-77
2023/01/06 12:00:08;;;;;;;4.88;0.80;;;;;;;;;;5107584;28;20063;-78
2023/01/06 12:02:50;;;;;;;4.63;0.70;;;;;;;;;;5106087;28;20055;-81
2023/01/06 12:05:44;;;;;;;5.53;1.08;;;;;;;;;;5108927;28;20058;-77
2023/01/06 12:08:24;;;;;;;3.15;0.68;;;;;;;;;;5106791;28;20529;-77
2023/01/06 12:11:05;;;;;;;2.92;0.93;;;;;;;;;;5106507;28;20059;-78
2023/01/06 12:13:38;;;;;;;5.22;1.15;;;;;;;;;;5105865;28;20062;-77
2023/01/06 12:16:46;;;;;;;5.97;1.00;;;;;;;;;;5107710;28;20050;-77
2023/01/06 12:19:18;;;;;;;;;;;;;;;;;;5098933;28;20060;-78
2023/01/06 12:21:50;;;;;;;3.83;1.40;;;;;;;;;;5106688;28;19947;-76
2023/01/06 12:24:22;;;;;;;6.13;0.95;;;;;;;;;;5106599;28;20051;-75
2023/01/06 12:26:53;;;;;;;7.75;0.93;;;;;;;;;;5104642;28;20044;-77
2023/01/06 12:29:23;;;;;;;5.30;0.90;;;;;;;;;;5106833;28;20050;-75
2023/01/06 12:32:18;;;;;;;4.28;0.80;;;;;;;;;;5106978;28;20054;-76
2023/01/06 12:34:52;;;;;;;3.60;0.60;;;;;;;;;;5106692;28;20047;-76
2023/01/06 12:37:30;;;;;;;7.38;0.90;;;;;;;;;;5106900;28;20042;-76
2023/01/06 12:40:03;;;;;;;1.95;0.60;;;;;;;;;;5106449;28;20375;-76
2023/01/06 12:42:58;;;;;;;9.00;0.98;;;;;;;;;;5106443;28;20117;-77
2023/01/06 12:45:53;;;;;;;4.72;0.82;;;;;;;;;;5107562;28;20043;-81
2023/01/06 12:48:46;;;;;;;9.57;3.20;;;;;;;;;;5104440;28;20398;-74
2023/01/06 12:51:20;;;;;;;5.07;1.80;;;;;;;;;;5106509;28;20817;-74
2023/01/06 12:54:12;;;;;;;4.20;0.85;;;;;;;;;;5106615;28;20046;-75
2023/01/06 12:57:08;;;;;;;4.90;0.70;;;;;;;;;;5106041;28;20387;-74
2023/01/06 12:59:54;;;;;;;3.42;0.55;;;;;;;;;;5105828;28;20426;-76
2023/01/06 13:02:48;;;;;;;3.28;0.80;;;;;;;;;;5106243;28;20044;-76
2023/01/06 13:05:37;;;;;;;3.47;0.90;;;;;;;;;;5106721;28;20048;-78
2023/01/06 13:08:18;;;;;;;6.03;1.02;;;;;;;;;;5106414;28;20402;-76
2023/01/06 13:10:53;;;;;;;5.38;0.90;;;;;;;;;;5106490;28;20051;-77
2023/01/06 13:14:03;;;;;;;4.10;0.80;;;;;;;;;;5109093;28;20050;-76
2023/01/06 13:16:52;;;;;;;3.28;0.68;;;;;;;;;;5110321;28;20043;-76
2023/01/06 13:19:44;;;;;;;5.10;0.77;;;;;;;;;;5110061;28;20067;-77
2023/01/06 13:22:36;;;;;;;3.80;0.77;;;;;;;;;;5097889;28;20338;-76
2023/01/06 13:25:22;;;;;;;7.72;1.02;;;;;;;;;;5110052;28;20048;-76
2023/01/06 13:28:30;;;;;;;7.32;0.98;;;;;;;;;;5109709;28;20054;-76
2023/01/06 13:31:32;;;;;;;5.82;0.60;;;;;;;;;;5109809;28;20051;-76
2023/01/06 13:34:41;;;;;;;6.97;0.65;;;;;;;;;;5097200;28;20051;-76
2023/01/06 13:37:35;;;;;;;5.15;0.98;;;;;;;;;;5108876;28;20055;-78
2023/01/06 13:40:11;;;;;;;5.90;0.90;;;;;;;;;;5065801;28;20059;-78
2023/01/06 13:42:47;;;;;;;14.60;1.35;;;;;;;;;;5108838;28;20530;-77
2023/01/06 13:45:24;;;;;;;11.65;0.85;;;;;;;;;;5109442;28;20059;-76
2023/01/06 13:47:57;;;;;;;3.70;1.25;;;;;;;;;;5107485;28;20506;-76
2023/01/06 13:50:29;;;;;;;4.65;0.73;;;;;;;;;;5109684;28;20047;-77
2023/01/06 13:53:00;;;;;;;2.42;0.75;;;;;;;;;;5091763;28;20062;-76
2023/01/06 13:55:35;;;;;;;3.13;0.70;;;;;;;;;;5109388;28;21159;-76
2023/01/06 13:58:29;;;;;;;5.53;2.38;;;;;;;;;;5109832;28;20039;-77
2023/01/06 14:01:15;;;;;;;8.10;0.82;;;;;;;;;;5109320;28;20521;-78
2023/01/06 14:03:50;;;;;;;5.13;0.73;;;;;;;;;;5109918;28;20044;-77
2023/01/06 14:06:21;;;;;;;7.10;0.80;;;;;;;;;;5109084;28;20040;-75
2023/01/06 14:08:57;;;;;;;4.53;0.80;;;;;;;;;;5109504;28;20051;-77
2023/01/06 14:11:37;;;;;;;4.40;0.80;;;;;;;;;;5109352;28;20343;-77
2023/01/06 14:14:29;;;;;;;5.05;0.85;;;;;;;;;;5109918;28;20062;-76
2023/01/06 14:17:45;;;;;;;5.45;1.05;;;;;;;;;;5109026;28;20406;-77
2023/01/06 14:20:37;;;;;;;5.72;0.90;;;;;;;;;;5109187;28;20048;-78
2023/01/06 14:23:15;;;;;;;3.17;0.68;;;;;;;;;;5108552;28;20055;-77
2023/01/06 14:25:56;;;;;;;7.28;0.95;;;;;;;;;;5108077;28;20055;-77
2023/01/06 14:28:29;;;;;;;3.03;0.73;;;;;;;;;;5108728;28;20729;-77
2023/01/06 14:31:31;;;;;;;7.95;1.10;;;;;;;;;;5107691;28;20040;-76
2023/01/06 14:34:03;;;;;;;6.93;0.90;;;;;;;;;;5108736;28;20036;-78
2023/01/06 14:36:33;;;;;;;3.40;1.20;;;;;;;;;;5091047;28;20059;-75
2023/01/06 14:39:09;;;;;;;4.63;1.00;;;;;;;;;;5108175;28;20048;-78
2023/01/06 14:41:46;;;;;;;5.97;0.75;;;;;;;;;;5108992;28;20047;-77
2023/01/06 14:44:26;;;;;;;5.88;1.10;;;;;;;;;;5109028;28;20070;-78
2023/01/06 14:47:15;;;;;;;4.53;0.80;;;;;;;;;;5108074;28;20051;-76
2023/01/06 14:50:38;;;;;;;3.53;0.93;;;;;;;;;;5108582;28;20043;-77
2023/01/06 14:53:41;;;;;;;5.38;1.13;;;;;;;;;;5080472;28;20074;-77
2023/01/06 14:56:22;;;;;;;4.25;0.80;;;;;;;;;;5108131;28;20063;-75
2023/01/06 14:59:09;;;;;;;2.97;0.90;;;;;;;;;;5108033;28;20110;-78
2023/01/06 15:01:43;;;;;;;4.60;1.10;;;;;;;;;;5108380;28;20043;-77
2023/01/06 15:04:27;;;;;;;4.47;0.70;;;;;;;;;;5108203;28;20039;-76
2023/01/06 15:07:17;;;;;;;6.13;0.70;;;;;;;;;;5108587;28;20413;-76
2023/01/06 15:09:50;;;;;;;3.97;0.80;;;;;;;;;;5108171;28;20106;-76
2023/01/06 15:12:29;;;;;;;4.95;0.80;;;;;;;;;;5108043;28;20051;-77
2023/01/06 15:15:36;;;;;;;5.03;0.80;;;;;;;;;;5108052;28;20043;-77
2023/01/06 15:18:09;;;;;;;4.43;0.63;;;;;;;;;;5009021;28;20530;-79
2023/01/06 15:20:41;;;;;;;4.50;1.13;;;;;;;;;;5097610;28;20060;-80
2023/01/06 15:23:18;;;;;;;4.07;0.75;;;;;;;;;;5107534;28;20078;-75
2023/01/06 15:25:50;;;;;;;2.65;0.70;;;;;;;;;;5107748;28;20047;-76
2023/01/06 15:28:28;;;;;;;4.57;0.80;;;;;;;;;;5105992;28;20058;-76
2023/01/06 15:31:00;;;;;;;5.47;0.70;;;;;;;;;;5107920;28;20051;-77
2023/01/06 15:33:41;;;;;;;5.50;0.98;;;;;;;;;;5107687;28;20047;-77
2023/01/06 15:36:19;;;;;;;6.32;0.77;;;;;;;;;;5107090;28;20044;-78
2023/01/06 15:38:51;;;;;;;2.10;0.63;;;;;;;;;;5107482;28;20054;-76
2023/01/06 15:41:35;;;;;;;2.55;0.60;;;;;;;;;;5107511;28;20498;-76
2023/01/06 15:44:22;;;;;;;5.32;0.73;;;;;;;;;;5107502;28;20044;-77
2023/01/06 15:46:58;;;;;;;6.53;0.90;;;;;;;;;;5107519;28;20043;-77
2023/01/06 15:49:39;;;;;;;4.30;0.80;;;;;;;;;;5106966;28;20054;-76
2023/01/06 15:52:23;;;;;;;3.92;0.90;;;;;;;;;;5107149;28;20047;-76
2023/01/06 15:54:57;;;;;;;10.77;1.63;;;;;;;;;;5107390;28;20051;-76
2023/01/06 15:57:37;;;;;;;7.00;0.88;;;;;;;;;;5107041;28;20054;-76
2023/01/06 16:00:21;;;;;;;7.35;1.05;;;;;;;;;;5106629;28;20406;-75
2023/01/06 16:02:52;;;;;;;9.00;1.10;;;;;;;;;;5107192;28;20058;-76
2023/01/06 16:05:41;;;;;;;4.32;0.85;;;;;;;;;;5106800;28;20047;-75
2023/01/06 16:08:31;;;;;;;6.45;0.85;;;;;;;;;;5106528;28;20044;-82
2023/01/06 16:11:54;;;;;;;3.95;1.00;;;;;;;;;;5105884;28;20048;-75
2023/01/06 16:14:23;;;;;;;;;;;;;;;;;;5107210;28;20040;-77
2023/01/06 16:17:12;;;;;;;4.95;0.50;;;;;;;;;;5106612;28;19924;-75
2023/01/06 16:19:58;;;;;;;5.97;0.85;;;;;;;;;;5105391;28;20503;-76
2023/01/06 16:22:40;;;;;;;4.85;0.95;;;;;;;;;;5106864;28;20056;-77
2023/01/06 16:25:20;;;;;;;;;;;;;;;;;;5107633;28;20051;-76
2023/01/06 16:27:54;;;;;;;3.85;0.82;;;;;;;;;;5106793;28;19942;-76
2023/01/06 16:30:28;;;;;;;8.88;0.98;;;;;;;;;;5106943;28;20054;-76
2023/01/06 16:33:03;;;;;;;;;;;;;;;;;;5107598;28;20051;-75
2023/01/06 16:35:34;;;;;;;4.15;0.90;;;;;;;;;;5106762;28;19919;-80
2023/01/06 16:38:07;;;;;;;3.20;0.90;;;;;;;;;;5106479;28;20043;-76
2023/01/06 16:40:37;;;;;;;5.95;1.05;;;;;;;;;;5107151;28;20036;-75
2023/01/06 16:43:08;;;;;;;5.75;0.80;;;;;;;;;;5106766;28;20044;-77
2023/01/06 16:45:43;;;;;;;4.68;0.82;;;;;;;;;;5106284;28;20043;-77
2023/01/06 16:48:15;;;;;;;8.13;1.02;;;;;;;;;;5109792;28;20040;-77
2023/01/06 16:50:53;;;;;;;7.43;1.00;;;;;;;;;;5110957;28;20049;-76
2023/01/06 16:53:26;;;;;;;5.85;1.02;;;;;;;;;;5110484;28;20058;-76
2023/01/06 16:55:58;;;;;;;2.35;0.65;;;;;;;;;;5110513;28;20410;-76
2023/01/06 16:58:32;;;;;;;8.40;1.35;;;;;;;;;;5110227;28;20114;-77
2023/01/06 17:01:22;;;;;;;8.10;1.10;;;;;;;;;;5110416;28;20498;-76
2023/01/06 17:04:00;;;;;;;6.05;0.82;;;;;;;;;;5110289;28;20074;-77
2023/01/06 17:06:31;;;;;;;5.60;1.10;;;;;;;;;;5110281;28;20062;-76
2023/01/06 17:09:02;;;;;;;7.13;0.90;;;;;;;;;;5110725;28;20047;-76
2023/01/06 17:11:36;;;;;;;7.97;1.15;;;;;;;;;;5110376;28;20039;-76
2023/01/06 17:14:18;;;;;;;8.75;1.02;;;;;;;;;;5110706;28;20048;-76
2023/01/06 17:16:50;;;;;;;9.68;1.10;;;;;;;;;;5110722;28;20064;-75
2023/01/06 17:19:25;;;;;;;5.88;0.98;;;;;;;;;;5108930;28;20055;-74
2023/01/06 17:22:19;;;;;;;7.15;1.30;;;;;;;;;;5109625;28;20054;-76
2023/01/06 17:24:49;;;;;;;;;;;;;;;;;;5111015;28;20054;-81
2023/01/06 17:27:25;;;;;;;5.20;1.08;;;;;;;;;;5110611;28;19930;-78
2023/01/06 17:29:59;;;;;;;6.18;0.82;;;;;;;;;;5110682;28;20383;-77
2023/01/06 17:32:40;;;;;;;5.88;1.00;;;;;;;;;;5110086;28;20051;-83
2023/01/06 17:35:27;;;;;;;5.75;0.95;;;;;;;;;;5109312;28;20062;-76
2023/01/06 17:38:06;;;;;;;5.07;0.80;;;;;;;;;;5109319;28;20043;-74
2023/01/06 17:40:37;;;;;;;6.90;0.93;;;;;;;;;;5108642;28;20051;-77
2023/01/06 17:43:23;;;;;;;9.85;1.20;;;;;;;;;;5110153;28;20488;-75
2023/01/06 17:45:56;;;;;;;10.55;1.23;;;;;;;;;;5109843;28;20126;-74
2023/01/06 17:48:27;;;;;;;5.97;1.10;;;;;;;;;;5109639;28;20039;-81
2023/01/06 17:50:58;;;;;;;4.60;0.77;;;;;;;;;;5108765;28;20043;-81
2023/01/06 17:56:25;;;;;;;6.30;1.10;;;;;;;;;;5109248;28;20546;-76
2023/01/06 17:58:59;;;;;;;6.10;1.63;;;;;;;;;;5108284;28;20105;-77
2023/01/06 18:01:30;;;;;;;9.63;1.05;;;;;;;;;;5109738;28;20406;-76
2023/01/06 18:04:05;;;;;;;6.53;0.98;;;;;;;;;;5109470;28;20058;-75
2023/01/06 18:06:36;;;;;;;6.18;1.23;;;;;;;;;;5109506;28;20402;-80